createdAt,value
2022-10-08T00:01:24.982Z,16.87
2022-10-08T00:03:53.552Z,16.91
2022-10-08T00:06:24.050Z,16.94
2022-10-08T00:08:58.449Z,16.97
2022-10-08T00:11:28.885Z,17.01
2022-10-08T00:13:56.520Z,17.02
2022-10-08T00:16:23.886Z,16.92
2022-10-08T00:18:53.080Z,16.77
2022-10-08T00:21:25.600Z,16.65
2022-10-08T00:23:53.600Z,16.62
2022-10-08T00:26:25.921Z,16.51
2022-10-08T00:28:57.292Z,16.43
2022-10-08T00:31:27.627Z,16.43
2022-10-08T00:34:00.979Z,16.43
2022-10-08T00:36:31.719Z,16.45
2022-10-08T00:39:11.594Z,16.43
2022-10-08T00:41:40.162Z,16.45
2022-10-08T00:44:44.961Z,16.52
2022-10-08T00:47:24.326Z,16.58
2022-10-08T00:49:56.031Z,16.58
2022-10-08T00:52:26.759Z,16.45
2022-10-08T00:54:54.259Z,16.35
2022-10-08T00:57:22.081Z,16.39
2022-10-08T00:59:49.936Z,16.40
2022-10-08T01:02:19.325Z,16.36
2022-10-08T01:04:47.893Z,16.23
2022-10-08T01:07:26.206Z,16.17
2022-10-08T01:09:59.423Z,16.36
2022-10-08T01:12:47.247Z,16.31
2022-10-08T01:15:26.985Z,16.20
2022-10-08T01:18:07.308Z,16.08
2022-10-08T01:20:41.799Z,16.00
2022-10-08T01:23:36.132Z,16.00
2022-10-08T01:26:30.705Z,16.03
2022-10-08T01:29:12.974Z,16.17
2022-10-08T01:31:48.332Z,16.02
2022-10-08T01:34:37.627Z,15.99
2022-10-08T01:37:09.728Z,16.01
2022-10-08T01:39:37.987Z,16.05
2022-10-08T01:42:08.506Z,16.07
2022-10-08T01:44:48.104Z,16.03
2022-10-08T01:47:21.420Z,16.00
2022-10-08T01:49:54.255Z,16.15
2022-10-08T01:52:26.995Z,16.21
2022-10-08T01:55:02.310Z,16.30
2022-10-08T01:57:33.254Z,16.16
2022-10-08T02:00:06.974Z,16.10
2022-10-08T02:02:40.518Z,16.04
2022-10-08T02:05:09.138Z,16.03
2022-10-08T02:07:39.926Z,16.05
2022-10-08T02:10:09.672Z,15.99
2022-10-08T02:12:40.151Z,16.04
2022-10-08T02:15:15.168Z,16.01
2022-10-08T02:17:57.447Z,15.93
2022-10-08T02:20:33.420Z,15.97
2022-10-08T02:23:29.816Z,15.86
2022-10-08T02:26:02.266Z,15.83
2022-10-08T02:28:38.293Z,15.83
2022-10-08T02:31:16.936Z,15.84
2022-10-08T02:33:52.343Z,15.84
2022-10-08T02:36:25.206Z,15.68
2022-10-08T02:38:59.385Z,15.65
2022-10-08T02:41:31.057Z,15.57
2022-10-08T02:44:03.059Z,15.57
2022-10-08T02:46:33.561Z,15.48
2022-10-08T02:49:07.352Z,15.35
2022-10-08T02:51:39.705Z,15.27
2022-10-08T02:54:08.831Z,15.36
2022-10-08T02:56:49.238Z,15.39
2022-10-08T02:59:20.255Z,15.36
2022-10-08T03:01:54.243Z,15.33
2022-10-08T03:04:32.845Z,15.21
2022-10-08T03:07:00.906Z,15.24
2022-10-08T03:09:42.194Z,15.19
2022-10-08T03:12:10.662Z,15.13
2022-10-08T03:14:41.042Z,15.07
2022-10-08T03:17:09.669Z,15.02
2022-10-08T03:19:38.165Z,14.94
2022-10-08T03:22:07.437Z,14.94
2022-10-08T03:24:36.119Z,14.94
2022-10-08T03:27:04.409Z,14.92
2022-10-08T03:29:31.817Z,14.98
2022-10-08T03:31:59.096Z,14.94
2022-10-08T03:34:26.514Z,15.10
2022-10-08T03:36:53.794Z,15.07
2022-10-08T03:39:21.215Z,15.05
2022-10-08T03:41:48.517Z,15.01
2022-10-08T03:44:15.834Z,15.01
2022-10-08T03:46:43.127Z,15.01
2022-10-08T03:49:10.496Z,15.05
2022-10-08T03:51:37.865Z,15.13
2022-10-08T03:54:08.568Z,15.17
2022-10-08T03:56:35.919Z,15.12
2022-10-08T03:59:04.043Z,15.09
2022-10-08T04:01:31.422Z,15.11
2022-10-08T04:03:58.889Z,14.97
2022-10-08T04:06:26.257Z,14.97
2022-10-08T04:08:56.049Z,14.87
2022-10-08T04:11:23.356Z,14.83
2022-10-08T04:13:50.662Z,14.80
2022-10-08T04:16:18.798Z,14.80
2022-10-08T04:18:47.916Z,14.79
2022-10-08T04:21:17.848Z,14.73
2022-10-08T04:23:47.316Z,14.61
2022-10-08T04:26:14.837Z,14.66
2022-10-08T04:28:44.524Z,14.50
2022-10-08T04:31:16.708Z,14.44
2022-10-08T04:33:46.207Z,14.57
2022-10-08T04:36:16.483Z,14.60
2022-10-08T04:38:44.791Z,14.55
2022-10-08T04:41:16.854Z,14.53
2022-10-08T04:43:44.954Z,14.49
2022-10-08T04:46:15.040Z,14.39
2022-10-08T04:48:47.434Z,14.32
2022-10-08T04:51:15.676Z,14.45
2022-10-08T04:53:43.400Z,14.41
2022-10-08T04:56:22.652Z,14.40
2022-10-08T04:58:55.190Z,14.39
2022-10-08T05:01:24.032Z,14.23
2022-10-08T05:03:53.847Z,14.21
2022-10-08T05:06:24.393Z,14.19
2022-10-08T05:08:52.165Z,14.16
2022-10-08T05:11:20.091Z,14.19
2022-10-08T05:13:52.333Z,14.19
2022-10-08T05:16:20.556Z,14.27
2022-10-08T05:18:50.580Z,14.28
2022-10-08T05:21:21.279Z,14.15
2022-10-08T05:24:00.911Z,14.20
2022-10-08T05:26:56.850Z,14.14
2022-10-08T05:29:20.898Z,14.20
2022-10-08T05:31:48.248Z,14.21
2022-10-08T05:34:15.835Z,14.32
2022-10-08T05:36:43.243Z,14.37
2022-10-08T05:39:10.581Z,14.39
2022-10-08T05:41:38.606Z,14.46
2022-10-08T05:44:07.548Z,14.52
2022-10-08T05:46:36.539Z,14.46
2022-10-08T05:49:09.912Z,14.46
2022-10-08T05:51:38.531Z,14.67
2022-10-08T05:54:05.932Z,14.67
2022-10-08T05:56:33.295Z,14.80
2022-10-08T05:59:00.598Z,14.81
2022-10-08T06:01:31.424Z,15.47
2022-10-08T06:04:07.816Z,16.63
2022-10-08T06:06:41.001Z,17.69
2022-10-08T06:09:11.109Z,18.71
2022-10-08T06:11:38.674Z,19.46
2022-10-08T06:14:07.428Z,19.88
2022-10-08T06:16:35.218Z,20.33
2022-10-08T06:19:04.225Z,20.59
2022-10-08T06:21:31.758Z,20.92
2022-10-08T06:24:02.306Z,20.83
2022-10-08T06:26:35.691Z,21.56
2022-10-08T06:29:12.895Z,21.29
2022-10-08T06:31:40.715Z,20.73
2022-10-08T06:34:08.179Z,19.74
2022-10-08T06:36:37.600Z,18.43
2022-10-08T06:39:08.289Z,17.53
2022-10-08T06:41:36.010Z,16.94
2022-10-08T06:44:06.737Z,16.72
2022-10-08T06:46:35.214Z,16.57
2022-10-08T06:49:03.271Z,16.54
2022-10-08T06:51:30.655Z,16.53
2022-10-08T06:54:04.362Z,16.65
2022-10-08T06:56:36.050Z,16.56
2022-10-08T06:59:05.296Z,16.46
2022-10-08T07:01:36.146Z,16.69
2022-10-08T07:04:05.382Z,16.80
2022-10-08T07:06:33.338Z,16.97
2022-10-08T07:09:03.194Z,17.01
2022-10-08T07:11:32.084Z,17.47
2022-10-08T07:13:59.722Z,17.50
2022-10-08T07:16:28.162Z,17.29
2022-10-08T07:18:58.658Z,17.26
2022-10-08T07:21:27.713Z,17.47
2022-10-08T07:23:55.529Z,17.74
2022-10-08T07:26:27.694Z,17.63
2022-10-08T07:29:01.194Z,17.63
2022-10-08T07:31:31.811Z,18.02
2022-10-08T07:34:00.882Z,18.22
2022-10-08T07:36:29.383Z,18.87
2022-10-08T07:38:58.816Z,20.27
2022-10-08T07:41:27.129Z,22.46
2022-10-08T07:43:58.392Z,23.94
2022-10-08T07:46:30.070Z,24.95
2022-10-08T07:48:59.209Z,26.12
2022-10-08T07:51:28.007Z,27.54
2022-10-08T07:54:00.204Z,28.27
2022-10-08T07:56:31.017Z,27.36
2022-10-08T07:59:00.179Z,28.35
2022-10-08T08:01:30.038Z,28.99
2022-10-08T08:04:00.964Z,28.01
2022-10-08T08:06:29.533Z,28.50
2022-10-08T08:08:57.098Z,29.51
2022-10-08T08:11:25.155Z,29.26
2022-10-08T08:13:52.910Z,28.87
2022-10-08T08:16:29.091Z,28.91
2022-10-08T08:18:59.372Z,29.47
2022-10-08T08:21:29.674Z,30.42
2022-10-08T08:23:58.959Z,30.55
2022-10-08T08:26:29.644Z,30.85
2022-10-08T08:28:59.771Z,30.44
2022-10-08T08:31:32.211Z,30.87
2022-10-08T08:34:02.779Z,30.44
2022-10-08T08:36:33.307Z,30.19
2022-10-08T08:39:01.317Z,30.36
2022-10-08T08:41:56.692Z,29.18
2022-10-08T08:44:25.170Z,29.61
2022-10-08T08:46:58.656Z,29.63
2022-10-08T08:49:40.573Z,30.59
2022-10-08T08:52:09.660Z,31.08
2022-10-08T08:54:37.018Z,30.40
2022-10-08T08:57:38.535Z,30.08
2022-10-08T09:00:18.534Z,30.78
2022-10-08T09:03:01.031Z,30.09
2022-10-08T09:05:33.522Z,29.87
2022-10-08T09:08:24.165Z,30.48
2022-10-08T09:11:00.015Z,30.05
2022-10-08T09:13:33.661Z,29.25
2022-10-08T09:16:01.583Z,30.61
2022-10-08T09:18:29.295Z,31.24
2022-10-08T09:20:56.667Z,31.03
2022-10-08T09:23:26.322Z,30.21
2022-10-08T09:26:33.677Z,29.93
2022-10-08T09:29:05.674Z,29.74
2022-10-08T09:31:39.205Z,29.90
2022-10-08T09:34:18.718Z,29.76
2022-10-08T09:36:50.729Z,30.42
2022-10-08T09:39:25.403Z,30.59
2022-10-08T09:42:07.837Z,30.57
2022-10-08T09:44:48.697Z,28.81
2022-10-08T09:47:24.168Z,29.92
2022-10-08T09:50:13.339Z,29.38
2022-10-08T09:52:41.670Z,29.16
2022-10-08T09:55:19.999Z,29.46
2022-10-08T09:57:51.244Z,29.25
2022-10-08T10:00:39.613Z,28.19
2022-10-08T10:03:15.583Z,27.85
2022-10-08T10:05:43.644Z,27.29
2022-10-08T10:08:53.941Z,27.39
2022-10-08T10:11:43.677Z,26.94
2022-10-08T10:14:21.824Z,27.06
2022-10-08T10:16:55.583Z,26.50
2022-10-08T10:19:28.751Z,25.82
2022-10-08T10:22:01.731Z,25.65
2022-10-08T10:24:52.228Z,25.31
2022-10-08T10:27:31.564Z,25.13
2022-10-08T10:30:25.440Z,25.43
2022-10-08T10:33:10.115Z,25.22
2022-10-08T10:35:45.719Z,25.30
2022-10-08T10:38:17.398Z,25.18
2022-10-08T10:41:26.371Z,25.71
2022-10-08T10:44:14.256Z,25.65
2022-10-08T10:46:49.663Z,25.27
2022-10-08T10:49:35.491Z,25.34
2022-10-08T10:52:24.773Z,25.16
2022-10-08T10:55:16.269Z,25.75
2022-10-08T10:58:11.213Z,25.63
2022-10-08T11:00:53.688Z,25.48
2022-10-08T11:03:34.293Z,25.31
2022-10-08T11:06:40.319Z,25.18
2022-10-08T11:09:07.585Z,25.23
2022-10-08T11:11:43.586Z,24.88
2022-10-08T11:14:37.408Z,25.19
2022-10-08T11:17:21.226Z,25.38
2022-10-08T11:20:20.336Z,25.63
2022-10-08T11:23:17.765Z,25.23
2022-10-08T11:26:19.071Z,25.14
2022-10-08T11:29:09.499Z,25.24
2022-10-08T11:31:52.881Z,25.04
2022-10-08T11:34:20.124Z,25.38
2022-10-08T11:37:20.665Z,25.83
2022-10-08T11:40:26.619Z,25.74
2022-10-08T11:43:07.236Z,25.87
2022-10-08T11:45:37.137Z,26.00
2022-10-08T11:48:31.631Z,25.67
2022-10-08T11:51:20.619Z,25.94
2022-10-08T11:53:59.773Z,26.11
2022-10-08T11:56:27.232Z,26.20
2022-10-08T11:59:02.163Z,26.28
2022-10-08T12:01:29.586Z,26.46
2022-10-08T12:04:22.295Z,26.32
2022-10-08T12:07:15.275Z,26.39
2022-10-08T12:10:09.046Z,26.30
2022-10-08T12:12:51.653Z,26.39
2022-10-08T12:15:25.034Z,26.45
2022-10-08T12:17:52.572Z,26.63
2022-10-08T12:20:19.949Z,26.75
2022-10-08T12:23:04.297Z,26.56
2022-10-08T12:25:39.021Z,26.59
2022-10-08T12:28:21.532Z,26.94
2022-10-08T12:30:58.633Z,26.80
2022-10-08T12:33:26.498Z,26.70
2022-10-08T12:36:28.185Z,26.95
2022-10-08T12:39:03.119Z,26.77
2022-10-08T12:42:04.064Z,26.42
2022-10-08T12:44:40.722Z,26.67
2022-10-08T12:47:26.584Z,26.65
2022-10-08T12:50:04.875Z,26.39
2022-10-08T12:52:36.319Z,26.51
2022-10-08T12:55:05.206Z,26.40
2022-10-08T12:57:37.386Z,26.41
2022-10-08T13:00:11.246Z,26.67
2022-10-08T13:02:42.040Z,26.64
2022-10-08T13:05:29.283Z,26.49
2022-10-08T13:07:57.270Z,26.71
2022-10-08T13:10:29.617Z,26.75
2022-10-08T13:13:05.364Z,26.48
2022-10-08T13:15:34.730Z,26.16
2022-10-08T13:18:21.850Z,26.18
2022-10-08T13:20:59.499Z,26.22
2022-10-08T13:23:35.083Z,26.28
2022-10-08T13:26:02.898Z,26.21
2022-10-08T13:28:58.696Z,26.37
2022-10-08T13:31:23.725Z,25.99
2022-10-08T13:33:51.271Z,26.12
2022-10-08T13:36:23.520Z,26.23
2022-10-08T13:38:51.629Z,26.04
2022-10-08T13:41:23.842Z,26.02
2022-10-08T13:43:51.470Z,25.99
2022-10-08T13:46:21.171Z,26.02
2022-10-08T13:48:48.475Z,25.89
2022-10-08T13:51:15.846Z,25.84
2022-10-08T13:53:45.559Z,25.91
2022-10-08T13:56:13.607Z,25.70
2022-10-08T13:58:40.910Z,25.76
2022-10-08T14:01:08.311Z,25.79
2022-10-08T14:03:35.609Z,25.81
2022-10-08T14:06:03.047Z,25.82
2022-10-08T14:08:31.458Z,25.63
2022-10-08T14:11:00.294Z,25.46
2022-10-08T14:13:29.642Z,25.36
2022-10-08T14:15:57.106Z,25.16
2022-10-08T14:18:24.422Z,25.10
2022-10-08T14:20:52.271Z,25.18
2022-10-08T14:23:20.339Z,25.21
2022-10-08T14:25:47.722Z,25.09
2022-10-08T14:28:15.036Z,25.02
2022-10-08T14:30:44.531Z,25.08
2022-10-08T14:33:11.987Z,24.93
2022-10-08T14:35:39.728Z,24.78
2022-10-08T14:38:08.745Z,24.78
2022-10-08T14:40:36.231Z,24.82
2022-10-08T14:43:03.579Z,24.73
2022-10-08T14:45:30.890Z,24.76
2022-10-08T14:47:58.355Z,24.72
2022-10-08T14:50:25.702Z,24.61
2022-10-08T14:52:53.111Z,24.58
2022-10-08T14:55:20.528Z,24.50
2022-10-08T14:57:48.260Z,24.53
2022-10-08T15:00:16.272Z,24.66
2022-10-08T15:02:43.589Z,24.44
2022-10-08T15:05:13.232Z,24.41
2022-10-08T15:07:40.575Z,24.39
2022-10-08T15:10:08.466Z,24.34
2022-10-08T15:12:35.834Z,24.37
2022-10-08T15:15:06.848Z,24.25
2022-10-08T15:17:34.179Z,24.21
2022-10-08T15:20:01.550Z,24.16
2022-10-08T15:22:29.131Z,24.11
2022-10-08T15:24:56.522Z,24.09
2022-10-08T15:27:23.959Z,23.97
2022-10-08T15:29:51.225Z,23.84
2022-10-08T15:32:19.591Z,23.68
2022-10-08T15:34:47.033Z,23.53
2022-10-08T15:37:14.736Z,23.41
2022-10-08T15:39:42.027Z,23.27
2022-10-08T15:42:13.338Z,23.13
2022-10-08T15:44:46.321Z,23.15
2022-10-08T15:47:15.056Z,23.26
2022-10-08T15:49:43.915Z,23.26
2022-10-08T15:52:17.230Z,23.29
2022-10-08T15:54:45.355Z,23.23
2022-10-08T15:57:14.531Z,23.14
2022-10-08T15:59:43.855Z,23.08
2022-10-08T16:02:17.204Z,23.04
2022-10-08T16:04:46.880Z,22.96
2022-10-08T16:07:14.372Z,22.90
2022-10-08T16:09:41.721Z,22.85
2022-10-08T16:12:09.237Z,22.80
2022-10-08T16:14:36.618Z,22.79
2022-10-08T16:17:04.059Z,22.75
2022-10-08T16:19:31.403Z,22.65
2022-10-08T16:21:58.868Z,22.63
2022-10-08T16:24:26.359Z,22.49
2022-10-08T16:26:53.677Z,22.46
2022-10-08T16:29:21.250Z,22.41
2022-10-08T16:31:48.762Z,22.49
2022-10-08T16:34:19.011Z,22.75
2022-10-08T16:36:48.358Z,22.78
2022-10-08T16:39:18.214Z,22.49
2022-10-08T16:41:45.717Z,22.34
2022-10-08T16:44:16.631Z,22.22
2022-10-08T16:46:48.394Z,22.05
2022-10-08T16:49:25.367Z,22.00
2022-10-08T16:51:55.556Z,21.90
2022-10-08T16:54:25.427Z,21.81
2022-10-08T16:56:52.959Z,21.75
2022-10-08T16:59:23.120Z,21.74
2022-10-08T17:01:52.876Z,21.69
2022-10-08T17:04:21.878Z,21.64
2022-10-08T17:06:49.425Z,21.61
2022-10-08T17:09:17.177Z,21.64
2022-10-08T17:11:44.878Z,21.70
2022-10-08T17:14:12.688Z,21.54
2022-10-08T17:16:43.220Z,21.65
2022-10-08T17:19:11.430Z,21.77
2022-10-08T17:21:39.030Z,21.80
2022-10-08T17:24:06.537Z,21.82
2022-10-08T17:26:33.977Z,21.82
2022-10-08T17:29:07.061Z,21.80
2022-10-08T17:31:35.694Z,21.75
2022-10-08T17:34:04.450Z,21.84
2022-10-08T17:36:36.986Z,21.75
2022-10-08T17:39:06.579Z,21.76
2022-10-08T17:41:36.401Z,21.77
2022-10-08T17:44:06.090Z,21.59
2022-10-08T17:46:36.616Z,21.49
2022-10-08T17:49:04.137Z,21.51
2022-10-08T17:51:51.099Z,21.42
2022-10-08T17:54:19.854Z,21.36
2022-10-08T17:56:48.119Z,21.34
2022-10-08T17:59:17.367Z,21.34
2022-10-08T18:01:45.768Z,21.13
2022-10-08T18:04:16.448Z,21.27
2022-10-08T18:06:46.451Z,21.14
2022-10-08T18:09:18.657Z,21.03
2022-10-08T18:11:50.940Z,21.04
2022-10-08T18:14:19.446Z,21.01
2022-10-08T18:16:48.510Z,21.16
2022-10-08T18:19:17.158Z,21.04
2022-10-08T18:21:44.915Z,21.02
2022-10-08T18:24:12.263Z,20.99
2022-10-08T18:26:39.737Z,20.99
2022-10-08T18:29:09.784Z,20.94
2022-10-08T18:31:39.176Z,20.96
2022-10-08T18:34:10.388Z,20.97
2022-10-08T18:36:38.789Z,20.91
2022-10-08T18:39:17.626Z,20.86
2022-10-08T18:41:49.587Z,20.81
2022-10-08T18:44:22.769Z,20.77
2022-10-08T18:46:52.264Z,20.75
2022-10-08T18:49:24.239Z,20.75
2022-10-08T18:51:51.434Z,20.73
2022-10-08T18:54:18.778Z,20.66
2022-10-08T18:56:46.155Z,20.62
2022-10-08T18:59:17.562Z,20.57
2022-10-08T19:01:47.553Z,20.75
2022-10-08T19:04:21.128Z,20.78
2022-10-08T19:06:50.129Z,20.85
2022-10-08T19:09:20.599Z,21.04
2022-10-08T19:11:51.004Z,20.95
2022-10-08T19:14:22.990Z,20.76
2022-10-08T19:16:50.476Z,20.62
2022-10-08T19:19:20.456Z,20.51
2022-10-08T19:21:48.868Z,20.50
2022-10-08T19:24:19.486Z,20.66
2022-10-08T19:26:47.998Z,20.54
2022-10-08T19:29:18.910Z,20.50
2022-10-08T19:31:50.227Z,20.46
2022-10-08T19:34:20.740Z,20.33
2022-10-08T19:36:49.038Z,20.51
2022-10-08T19:39:22.718Z,20.36
2022-10-08T19:41:50.995Z,20.18
2022-10-08T19:44:19.527Z,20.25
2022-10-08T19:46:46.990Z,20.15
2022-10-08T19:49:15.451Z,20.10
2022-10-08T19:51:43.234Z,20.26
2022-10-08T19:54:10.995Z,20.22
2022-10-08T19:56:38.367Z,20.12
2022-10-08T19:59:06.250Z,20.15
2022-10-08T20:01:36.482Z,20.15
2022-10-08T20:04:05.811Z,20.08
2022-10-08T20:06:36.465Z,20.05
2022-10-08T20:09:05.079Z,20.08
2022-10-08T20:11:33.416Z,20.13
2022-10-08T20:14:00.882Z,20.18
2022-10-08T20:16:31.549Z,20.24
2022-10-08T20:19:01.598Z,20.44
2022-10-08T20:21:31.011Z,20.32
2022-10-08T20:23:58.953Z,20.34
2022-10-08T20:26:31.690Z,20.49
2022-10-08T20:29:04.884Z,20.45
2022-10-08T20:31:40.686Z,20.47
2022-10-08T20:34:17.750Z,20.62
2022-10-08T20:36:46.933Z,20.43
2022-10-08T20:39:16.230Z,20.42
2022-10-08T20:41:43.862Z,20.57
2022-10-08T20:44:11.348Z,20.53
2022-10-08T20:46:39.294Z,20.49
2022-10-08T20:49:07.178Z,20.36
2022-10-08T20:51:35.248Z,20.31
2022-10-08T20:54:06.942Z,20.34
2022-10-08T20:56:39.867Z,20.22
2022-10-08T20:59:16.549Z,20.22
2022-10-08T21:01:44.573Z,20.21
2022-10-08T21:04:12.260Z,20.15
2022-10-08T21:06:45.975Z,20.10
2022-10-08T21:09:14.845Z,20.07
2022-10-08T21:11:42.375Z,20.05
2022-10-08T21:14:10.474Z,20.06
2022-10-08T21:16:39.792Z,20.10
2022-10-08T21:19:21.988Z,20.17
2022-10-08T21:21:49.209Z,20.12
2022-10-08T21:24:16.870Z,20.07
2022-10-08T21:26:44.231Z,20.09
2022-10-08T21:29:14.224Z,19.97
2022-10-08T21:31:42.386Z,19.87
2022-10-08T21:34:12.139Z,19.81
2022-10-08T21:36:40.837Z,19.81
2022-10-08T21:39:10.736Z,19.76
2022-10-08T21:41:40.692Z,19.55
2022-10-08T21:44:08.907Z,19.38
2022-10-08T21:46:38.591Z,19.42
2022-10-08T21:49:08.497Z,19.35
2022-10-08T21:51:36.232Z,19.36
2022-10-08T21:54:05.375Z,19.49
2022-10-08T21:56:35.289Z,19.42
2022-10-08T21:59:07.529Z,19.53
2022-10-08T22:01:49.777Z,19.65
2022-10-08T22:04:22.561Z,19.65
2022-10-08T22:06:52.595Z,19.49
2022-10-08T22:09:23.857Z,19.34
2022-10-08T22:11:52.197Z,19.38
2022-10-08T22:14:20.020Z,19.28
2022-10-08T22:16:47.928Z,19.33
2022-10-08T22:19:15.889Z,19.38
2022-10-08T22:21:43.279Z,19.38
2022-10-08T22:24:11.361Z,19.33
2022-10-08T22:26:42.329Z,19.39
2022-10-08T22:29:10.345Z,19.42
2022-10-08T22:31:38.436Z,19.63
2022-10-08T22:34:06.113Z,19.39
2022-10-08T22:36:37.160Z,19.39
2022-10-08T22:39:04.531Z,19.34
2022-10-08T22:41:33.049Z,19.53
2022-10-08T22:44:02.632Z,19.49
2022-10-08T22:46:34.191Z,19.38
2022-10-08T22:49:05.983Z,19.30
2022-10-08T22:51:33.534Z,19.28
2022-10-08T22:54:00.953Z,19.33
2022-10-08T22:56:32.267Z,19.45
2022-10-08T22:59:00.250Z,19.43
2022-10-08T23:01:29.287Z,19.13
2022-10-08T23:03:57.251Z,19.35
2022-10-08T23:06:29.518Z,19.29
2022-10-08T23:08:59.763Z,19.40
2022-10-08T23:11:28.662Z,19.23
2022-10-08T23:13:58.659Z,19.32
2022-10-08T23:16:28.714Z,19.38
2022-10-08T23:18:58.903Z,19.37
2022-10-08T23:21:27.850Z,19.31
2022-10-08T23:23:56.212Z,19.15
2022-10-08T23:26:27.651Z,19.09
2022-10-08T23:29:00.221Z,19.12
2022-10-08T23:31:34.077Z,18.92
2022-10-08T23:34:02.482Z,19.12
2022-10-08T23:36:41.801Z,19.09
2022-10-08T23:39:12.513Z,18.95
2022-10-08T23:41:39.914Z,18.95
2022-10-08T23:44:08.919Z,18.98
2022-10-08T23:46:36.627Z,18.90
2022-10-08T23:49:04.607Z,18.81
2022-10-08T23:51:32.333Z,18.80
2022-10-08T23:54:01.260Z,18.85
2022-10-08T23:56:29.002Z,18.82
2022-10-08T23:58:56.706Z,18.62
